createdAt,value
2018-01-22T00:00:50.511Z,3.50
2018-01-22T00:03:17.869Z,3.70
2018-01-22T00:05:45.342Z,3.40
2018-01-22T00:08:12.702Z,3.50
2018-01-22T00:10:40.093Z,3.30
2018-01-22T00:13:07.479Z,3.63
2018-01-22T00:15:34.990Z,3.00
2018-01-22T00:18:02.378Z,3.07
2018-01-22T00:20:29.744Z,2.87
2018-01-22T00:22:57.073Z,3.70
2018-01-22T00:25:24.454Z,3.55
2018-01-22T00:27:51.870Z,3.10
2018-01-22T00:30:19.268Z,3.10
2018-01-22T00:32:46.613Z,3.43
2018-01-22T00:35:14.014Z,3.70
2018-01-22T00:37:41.552Z,3.35
2018-01-22T00:40:08.983Z,3.10
2018-01-22T00:42:36.451Z,2.75
2018-01-22T00:45:03.809Z,3.70
2018-01-22T00:47:31.211Z,3.35
2018-01-22T00:49:58.603Z,3.25
2018-01-22T00:52:25.937Z,3.30
2018-01-22T00:54:53.338Z,3.10
2018-01-22T00:57:20.679Z,2.85
2018-01-22T00:59:48.098Z,3.90
2018-01-22T01:02:15.463Z,2.80
2018-01-22T01:04:42.822Z,2.60
2018-01-22T01:07:10.217Z,2.75
2018-01-22T01:09:37.590Z,2.40
2018-01-22T01:12:04.983Z,3.10
2018-01-22T01:14:32.354Z,2.15
2018-01-22T01:16:59.765Z,2.70
2018-01-22T01:19:27.122Z,2.53
2018-01-22T01:21:54.519Z,2.27
2018-01-22T01:24:21.869Z,2.20
2018-01-22T01:26:49.478Z,3.20
2018-01-22T01:29:16.864Z,2.60
2018-01-22T01:31:44.209Z,2.93
2018-01-22T01:34:11.604Z,2.70
2018-01-22T01:36:38.974Z,2.40
2018-01-22T01:39:06.318Z,2.45
2018-01-22T01:41:33.715Z,2.67
2018-01-22T01:44:01.063Z,2.87
2018-01-22T01:46:28.458Z,2.40
2018-01-22T01:48:55.845Z,2.25
2018-01-22T01:51:23.260Z,1.80
2018-01-22T01:53:50.626Z,1.90
2018-01-22T01:56:18.026Z,2.45
2018-01-22T01:58:45.426Z,2.60
2018-01-22T02:01:12.814Z,2.30
2018-01-22T02:03:40.188Z,1.93
2018-01-22T02:06:07.582Z,1.93
2018-01-22T02:08:34.990Z,2.30
2018-01-22T02:11:02.362Z,1.60
2018-01-22T02:13:29.761Z,2.23
2018-01-22T02:15:57.334Z,1.83
2018-01-22T02:18:24.730Z,1.40
2018-01-22T02:20:52.102Z,1.85
2018-01-22T02:23:19.541Z,2.10
2018-01-22T02:25:46.896Z,1.50
2018-01-22T02:28:14.259Z,2.00
2018-01-22T02:30:41.634Z,1.25
2018-01-22T02:33:08.986Z,1.35
2018-01-22T02:35:36.422Z,1.57
2018-01-22T02:38:03.828Z,0.90
2018-01-22T02:40:31.207Z,1.50
2018-01-22T02:42:58.558Z,1.20
2018-01-22T02:45:25.935Z,1.10
2018-01-22T02:47:53.271Z,1.17
2018-01-22T02:50:20.671Z,0.93
2018-01-22T02:52:48.123Z,1.65
2018-01-22T02:55:15.457Z,1.17
2018-01-22T02:57:42.866Z,1.10
2018-01-22T03:00:10.277Z,1.40
2018-01-22T03:02:37.605Z,1.17
2018-01-22T03:05:05.010Z,0.80
2018-01-22T03:07:32.348Z,1.05
2018-01-22T03:09:59.782Z,1.15
2018-01-22T03:12:27.176Z,1.05
2018-01-22T03:14:54.621Z,1.03
2018-01-22T03:17:21.979Z,1.00
2018-01-22T03:19:49.392Z,1.30
2018-01-22T03:22:16.742Z,1.43
2018-01-22T03:24:44.099Z,1.25
2018-01-22T03:27:11.538Z,1.40
2018-01-22T03:29:38.912Z,0.80
2018-01-22T03:32:06.308Z,0.95
2018-01-22T03:34:33.790Z,1.60
2018-01-22T03:37:01.165Z,1.20
2018-01-22T03:39:28.498Z,1.80
2018-01-22T03:41:55.869Z,1.00
2018-01-22T03:44:23.458Z,1.20
2018-01-22T03:46:50.817Z,0.90
2018-01-22T03:49:19.030Z,1.30
2018-01-22T03:51:46.494Z,1.30
2018-01-22T03:54:13.852Z,1.00
2018-01-22T03:56:41.338Z,1.10
2018-01-22T03:59:08.790Z,1.27
2018-01-22T04:01:36.170Z,1.30
2018-01-22T04:04:03.542Z,1.30
2018-01-22T04:06:30.878Z,0.83
2018-01-22T04:08:58.271Z,0.90
2018-01-22T04:11:25.653Z,1.43
2018-01-22T04:13:52.998Z,1.27
2018-01-22T04:16:20.345Z,1.10
2018-01-22T04:18:47.917Z,1.20
2018-01-22T04:21:15.302Z,0.97
2018-01-22T04:23:42.646Z,0.90
2018-01-22T04:26:09.999Z,1.20
2018-01-22T04:28:37.460Z,0.70
2018-01-22T04:31:04.909Z,0.70
2018-01-22T04:33:32.352Z,1.17
2018-01-22T04:35:59.790Z,0.90
2018-01-22T04:38:27.133Z,0.85
2018-01-22T04:40:54.734Z,22.77
2018-01-22T04:43:22.646Z,1.33
2018-01-22T04:45:50.081Z,1.45
2018-01-22T04:48:17.429Z,1.25
2018-01-22T04:50:44.926Z,2.50
2018-01-22T04:53:12.279Z,1.30
2018-01-22T04:55:39.673Z,12.40
2018-01-22T04:58:07.074Z,27.75
2018-01-22T05:00:34.434Z,3.00
2018-01-22T05:03:01.830Z,8.60
2018-01-22T05:05:29.229Z,7.20
2018-01-22T05:07:56.640Z,10.35
2018-01-22T05:10:24.004Z,36.80
2018-01-22T05:12:51.431Z,51.90
2018-01-22T05:15:18.798Z,8.50
2018-01-22T05:17:46.208Z,6.90
2018-01-22T05:20:13.620Z,21.90
2018-01-22T05:22:41.002Z,14.17
2018-01-22T05:25:08.493Z,19.80
2018-01-22T05:27:35.898Z,5.85
2018-01-22T05:30:03.298Z,12.83
2018-01-22T05:32:30.747Z,17.47
2018-01-22T05:34:58.109Z,23.73
2018-01-22T05:37:25.787Z,28.57
2018-01-22T05:39:53.221Z,47.10
2018-01-22T05:42:20.649Z,26.57
2018-01-22T05:44:48.083Z,32.17
2018-01-22T05:47:15.493Z,40.90
2018-01-22T05:49:42.865Z,57.93
2018-01-22T05:52:10.230Z,36.63
2018-01-22T05:54:37.666Z,55.60
2018-01-22T05:57:05.048Z,62.90
2018-01-22T05:59:32.662Z,46.30
2018-01-22T06:02:00.028Z,29.35
2018-01-22T06:04:27.451Z,26.37
2018-01-22T06:06:54.842Z,27.77
2018-01-22T06:09:22.286Z,29.27
2018-01-22T06:11:49.689Z,25.40
2018-01-22T06:14:17.049Z,39.33
2018-01-22T06:16:44.510Z,19.20
2018-01-22T06:19:11.950Z,14.70
2018-01-22T06:21:39.383Z,35.97
2018-01-22T06:24:06.774Z,17.25
2018-01-22T06:26:34.154Z,6.70
2018-01-22T06:29:01.585Z,12.77
2018-01-22T06:31:28.973Z,13.20
2018-01-22T06:33:56.401Z,11.95
2018-01-22T06:36:23.805Z,17.93
2018-01-22T06:38:51.231Z,16.60
2018-01-22T06:41:18.634Z,10.23
2018-01-22T06:43:45.998Z,9.40
2018-01-22T06:46:13.430Z,7.10
2018-01-22T06:48:40.908Z,11.45
2018-01-22T06:51:08.279Z,8.67
2018-01-22T06:53:36.720Z,13.80
2018-01-22T06:56:04.137Z,11.60
2018-01-22T06:58:31.541Z,12.20
2018-01-22T07:00:59.050Z,7.50
2018-01-22T07:03:26.411Z,9.50
2018-01-22T07:05:53.819Z,10.60
2018-01-22T07:08:21.226Z,23.93
2018-01-22T07:10:48.626Z,2.95
2018-01-22T07:13:16.149Z,9.20
2018-01-22T07:15:43.697Z,12.27
2018-01-22T07:18:11.279Z,20.20
2018-01-22T07:20:38.652Z,10.35
2018-01-22T07:23:06.241Z,7.03
2018-01-22T07:25:33.650Z,8.37
2018-01-22T07:28:01.079Z,6.77
2018-01-22T07:30:28.481Z,6.20
2018-01-22T07:32:55.938Z,2.13
2018-01-22T07:35:23.350Z,2.20
2018-01-22T07:37:50.732Z,11.25
2018-01-22T07:40:18.319Z,3.07
2018-01-22T07:42:45.738Z,10.93
2018-01-22T07:45:13.310Z,4.00
2018-01-22T07:47:40.728Z,2.13
2018-01-22T07:50:08.145Z,8.93
2018-01-22T07:52:35.530Z,6.33
2018-01-22T07:55:02.930Z,8.00
2018-01-22T07:57:30.540Z,3.50
2018-01-22T07:59:58.107Z,3.55
2018-01-22T08:02:26.202Z,2.00
2018-01-22T08:04:53.661Z,5.47
2018-01-22T08:07:21.472Z,2.20
2018-01-22T08:09:49.102Z,4.45
2018-01-22T08:12:16.589Z,6.13
2018-01-22T08:14:45.525Z,7.67
2018-01-22T08:17:13.081Z,4.17
2018-01-22T08:19:40.952Z,3.50
2018-01-22T08:22:08.550Z,5.15
2018-01-22T08:24:36.037Z,4.35
2018-01-22T08:27:03.501Z,17.60
2018-01-22T08:29:30.914Z,7.97
2018-01-22T08:31:58.310Z,2.70
2018-01-22T08:34:26.673Z,12.67
2018-01-22T08:36:54.193Z,7.70
2018-01-22T08:39:21.720Z,9.83
2018-01-22T08:41:49.862Z,4.50
2018-01-22T08:44:17.798Z,2.65
2018-01-22T08:46:45.896Z,4.45
2018-01-22T08:49:13.397Z,4.40
2018-01-22T08:51:40.920Z,5.00
2018-01-22T08:54:11.495Z,5.55
2018-01-22T08:56:39.037Z,2.75
2018-01-22T08:59:06.706Z,6.40
2018-01-22T09:01:34.316Z,5.85
2018-01-22T09:04:01.766Z,9.60
2018-01-22T09:06:30.213Z,4.00
2018-01-22T09:08:57.972Z,7.25
2018-01-22T09:11:25.463Z,6.27
2018-01-22T09:13:53.302Z,3.83
2018-01-22T09:16:21.379Z,4.53
2018-01-22T09:18:48.999Z,3.00
2018-01-22T09:21:16.493Z,3.33
2018-01-22T09:23:44.041Z,8.17
2018-01-22T09:26:11.467Z,3.23
2018-01-22T09:28:39.791Z,7.17
2018-01-22T09:31:07.513Z,3.55
2018-01-22T09:33:34.957Z,13.00
2018-01-22T09:36:02.474Z,5.00
2018-01-22T09:38:30.007Z,4.15
2018-01-22T09:40:57.485Z,6.40
2018-01-22T09:43:24.980Z,5.43
2018-01-22T09:45:52.660Z,8.53
2018-01-22T09:48:20.175Z,13.67
2018-01-22T09:50:47.629Z,8.90
2018-01-22T09:53:15.308Z,7.20
2018-01-22T09:55:42.774Z,10.53
2018-01-22T09:58:10.325Z,9.57
2018-01-22T10:00:37.929Z,7.53
2018-01-22T10:03:05.371Z,8.30
2018-01-22T10:05:33.012Z,8.10
2018-01-22T10:08:00.469Z,4.10
2018-01-22T10:10:29.018Z,10.20
2018-01-22T10:12:56.513Z,7.10
2018-01-22T10:15:24.055Z,11.13
2018-01-22T10:17:51.663Z,16.40
2018-01-22T10:20:19.101Z,6.35
2018-01-22T10:22:46.630Z,9.63
2018-01-22T10:25:14.150Z,5.73
2018-01-22T10:27:41.744Z,8.30
2018-01-22T10:30:09.194Z,4.05
2018-01-22T10:32:36.645Z,3.85
2018-01-22T10:35:04.451Z,4.40
2018-01-22T10:37:31.951Z,3.70
2018-01-22T10:39:59.435Z,10.40
2018-01-22T10:42:26.895Z,7.43
2018-01-22T10:44:54.340Z,4.10
2018-01-22T10:47:21.760Z,4.70
2018-01-22T10:49:49.251Z,5.60
2018-01-22T10:52:16.735Z,3.75
2018-01-22T10:54:45.093Z,11.27
2018-01-22T10:57:12.672Z,7.95
2018-01-22T10:59:40.144Z,12.15
2018-01-22T11:02:07.886Z,11.90
2018-01-22T11:04:35.404Z,8.25
2018-01-22T11:07:02.932Z,13.97
2018-01-22T11:09:32.076Z,4.10
2018-01-22T11:11:59.553Z,3.95
2018-01-22T11:14:27.025Z,8.90
2018-01-22T11:16:54.481Z,6.80
2018-01-22T11:19:22.280Z,7.80
2018-01-22T11:21:49.907Z,4.80
2018-01-22T11:24:17.414Z,8.80
2018-01-22T11:26:44.936Z,5.75
2018-01-22T11:29:13.303Z,3.40
2018-01-22T11:31:45.263Z,12.93
2018-01-22T11:34:13.722Z,10.20
2018-01-22T11:36:41.308Z,3.63
2018-01-22T11:39:10.559Z,5.83
2018-01-22T11:41:42.910Z,4.27
2018-01-22T11:44:10.489Z,3.85
2018-01-22T11:46:38.992Z,15.33
2018-01-22T11:49:06.494Z,7.67
2018-01-22T11:51:34.352Z,9.13
2018-01-22T11:54:01.980Z,5.95
2018-01-22T11:56:29.698Z,5.20
2018-01-22T11:58:59.559Z,6.80
2018-01-22T12:01:28.797Z,6.17
2018-01-22T12:03:56.314Z,5.43
2018-01-22T12:06:24.584Z,5.33
2018-01-22T12:08:52.030Z,4.43
2018-01-22T12:11:19.921Z,16.30
2018-01-22T12:13:47.570Z,9.60
2018-01-22T12:16:15.094Z,4.75
2018-01-22T12:18:42.709Z,8.10
2018-01-22T12:21:10.159Z,7.75
2018-01-22T12:23:38.197Z,10.93
2018-01-22T12:26:05.622Z,4.70
2018-01-22T12:28:33.136Z,4.97
2018-01-22T12:31:01.136Z,5.45
2018-01-22T12:33:28.606Z,9.27
2018-01-22T12:38:33.820Z,3.73
2018-01-22T12:41:01.252Z,11.87
2018-01-22T12:43:28.702Z,9.45
2018-01-22T12:45:56.306Z,12.40
2018-01-22T12:48:23.858Z,5.93
2018-01-22T12:50:51.620Z,6.13
2018-01-22T12:53:19.257Z,15.90
2018-01-22T12:55:46.884Z,14.00
2018-01-22T12:58:15.229Z,10.53
2018-01-22T13:00:42.743Z,6.73
2018-01-22T13:03:12.235Z,11.40
2018-01-22T13:05:40.583Z,4.50
2018-01-22T13:08:08.500Z,10.33
2018-01-22T13:10:36.034Z,7.60
2018-01-22T13:13:03.578Z,21.17
2018-01-22T13:15:31.110Z,5.63
2018-01-22T13:17:58.745Z,17.37
2018-01-22T13:20:26.807Z,9.40
2018-01-22T13:22:54.234Z,5.13
2018-01-22T13:25:21.962Z,9.30
2018-01-22T13:27:52.720Z,12.40
2018-01-22T13:30:20.284Z,5.60
2018-01-22T13:32:47.839Z,11.63
2018-01-22T13:35:15.611Z,4.77
2018-01-22T13:37:43.280Z,6.00
2018-01-22T13:40:10.946Z,9.23
2018-01-22T13:42:38.370Z,7.35
2018-01-22T13:45:07.339Z,10.30
2018-01-22T13:47:38.615Z,15.10
2018-01-22T13:50:06.329Z,4.90
2018-01-22T13:52:33.803Z,6.10
2018-01-22T13:55:01.379Z,6.67
2018-01-22T13:57:28.956Z,8.03
2018-01-22T13:59:56.590Z,4.27
2018-01-22T14:02:24.358Z,4.80
2018-01-22T14:04:53.381Z,5.50
2018-01-22T14:07:23.123Z,10.55
2018-01-22T14:09:50.797Z,5.73
2018-01-22T14:12:18.255Z,6.60
2018-01-22T14:14:49.319Z,5.60
2018-01-22T14:17:17.380Z,5.87
2018-01-22T14:19:46.849Z,4.75
2018-01-22T14:22:16.365Z,5.53
2018-01-22T14:24:45.930Z,5.03
2018-01-22T14:27:13.546Z,5.20
2018-01-22T14:29:41.077Z,6.23
2018-01-22T14:32:08.542Z,16.53
2018-01-22T14:34:36.037Z,4.60
2018-01-22T14:37:03.853Z,5.73
2018-01-22T14:39:35.976Z,7.43
2018-01-22T14:42:13.428Z,4.85
2018-01-22T14:44:44.738Z,8.77
2018-01-22T14:47:12.377Z,10.60
2018-01-22T14:49:46.678Z,6.20
2018-01-22T14:52:18.864Z,5.45
2018-01-22T14:54:46.757Z,4.83
2018-01-22T14:57:17.044Z,9.93
2018-01-22T14:59:45.081Z,7.00
2018-01-22T15:02:15.044Z,9.67
2018-01-22T15:04:43.585Z,12.17
2018-01-22T15:07:11.276Z,17.35
2018-01-22T15:09:41.321Z,9.65
2018-01-22T15:12:09.708Z,5.35
2018-01-22T15:14:40.295Z,5.97
2018-01-22T15:17:08.056Z,6.23
2018-01-22T15:19:37.044Z,8.07
2018-01-22T15:22:08.338Z,9.63
2018-01-22T15:24:36.816Z,5.53
2018-01-22T15:27:04.434Z,5.80
2018-01-22T15:29:31.960Z,9.50
2018-01-22T15:31:59.508Z,22.63
2018-01-22T15:34:27.221Z,5.40
2018-01-22T15:36:54.860Z,6.85
2018-01-22T15:39:22.692Z,7.80
2018-01-22T15:41:50.465Z,10.50
2018-01-22T15:44:18.627Z,6.70
2018-01-22T15:46:46.454Z,14.80
2018-01-22T15:49:14.020Z,6.33
2018-01-22T15:51:42.595Z,6.60
2018-01-22T15:54:10.288Z,10.60
2018-01-22T15:56:37.839Z,7.25
2018-01-22T15:59:06.123Z,6.63
2018-01-22T16:01:33.701Z,6.20
2018-01-22T16:04:01.366Z,7.50
2018-01-22T16:06:29.718Z,6.90
2018-01-22T16:08:57.894Z,6.80
2018-01-22T16:11:26.000Z,7.07
2018-01-22T16:13:53.900Z,7.00
2018-01-22T16:16:22.300Z,7.93
2018-01-22T16:18:50.118Z,8.70
2018-01-22T16:21:18.318Z,10.03
2018-01-22T16:23:46.421Z,8.20
2018-01-22T16:26:14.058Z,7.07
2018-01-22T16:28:41.718Z,8.23
2018-01-22T16:31:09.512Z,7.67
2018-01-22T16:33:37.068Z,7.27
2018-01-22T16:36:05.188Z,8.10
2018-01-22T16:38:32.727Z,6.10
2018-01-22T16:41:00.642Z,7.63
2018-01-22T16:43:28.545Z,7.07
2018-01-22T16:45:56.120Z,7.80
2018-01-22T16:48:23.793Z,7.97
2018-01-22T16:50:51.470Z,7.30
2018-01-22T16:53:19.947Z,7.40
2018-01-22T16:55:47.409Z,6.73
2018-01-22T16:58:14.789Z,7.37
2018-01-22T17:00:42.186Z,8.40
2018-01-22T17:03:09.606Z,7.70
2018-01-22T17:05:37.133Z,9.35
2018-01-22T17:08:04.648Z,7.40
2018-01-22T17:10:32.075Z,7.00
2018-01-22T17:12:59.546Z,7.40
2018-01-22T17:15:26.973Z,6.10
2018-01-22T17:17:54.425Z,8.40
2018-01-22T17:20:22.008Z,6.80
2018-01-22T17:22:49.561Z,8.30
2018-01-22T17:25:17.020Z,8.13
2018-01-22T17:27:44.379Z,7.00
2018-01-22T17:30:11.789Z,7.13
2018-01-22T17:32:39.195Z,6.83
2018-01-22T17:35:06.699Z,7.15
2018-01-22T17:37:34.259Z,7.37
2018-01-22T17:40:01.942Z,6.85
2018-01-22T17:42:29.394Z,7.13
2018-01-22T17:44:56.814Z,8.95
2018-01-22T17:47:24.243Z,8.03
2018-01-22T17:49:51.693Z,8.05
2018-01-22T17:52:19.258Z,7.25
2018-01-22T17:54:46.779Z,7.97
2018-01-22T17:57:14.144Z,8.05
2018-01-22T17:59:41.544Z,7.30
2018-01-22T18:02:08.939Z,7.50
2018-01-22T18:04:37.550Z,8.00
2018-01-22T18:07:04.918Z,8.60
2018-01-22T18:09:32.300Z,16.60
2018-01-22T18:11:59.721Z,8.73
2018-01-22T18:14:27.172Z,8.37
2018-01-22T18:16:54.548Z,7.75
2018-01-22T18:19:22.008Z,9.73
2018-01-22T18:21:49.637Z,7.70
2018-01-22T18:24:17.050Z,11.37
2018-01-22T18:26:44.692Z,7.60
2018-01-22T18:29:12.139Z,6.55
2018-01-22T18:31:39.573Z,7.10
2018-01-22T18:34:06.928Z,7.03
2018-01-22T18:36:34.380Z,6.57
2018-01-22T18:39:01.773Z,8.70
2018-01-22T18:41:29.218Z,7.85
2018-01-22T18:43:56.579Z,8.80
2018-01-22T18:46:23.998Z,8.33
2018-01-22T18:48:51.394Z,9.00
2018-01-22T18:51:18.794Z,8.80
2018-01-22T18:53:46.241Z,8.27
2018-01-22T18:56:13.573Z,7.60
2018-01-22T18:58:40.934Z,7.83
2018-01-22T19:01:08.464Z,7.25
2018-01-22T19:03:35.817Z,9.15
2018-01-22T19:06:03.230Z,8.15
2018-01-22T19:08:30.663Z,8.10
2018-01-22T19:10:58.011Z,7.65
2018-01-22T19:13:25.478Z,7.40
2018-01-22T19:15:52.814Z,8.80
2018-01-22T19:18:20.162Z,7.40
2018-01-22T19:20:47.489Z,7.30
2018-01-22T19:23:14.861Z,7.80
2018-01-22T19:25:42.266Z,8.20
2018-01-22T19:28:09.613Z,8.43
2018-01-22T19:30:36.948Z,7.70
2018-01-22T19:33:04.338Z,8.27
2018-01-22T19:35:31.722Z,7.80
2018-01-22T19:37:59.144Z,7.57
2018-01-22T19:40:26.551Z,8.50
2018-01-22T19:42:53.975Z,8.90
2018-01-22T19:45:21.357Z,8.15
2018-01-22T19:47:48.828Z,8.67
2018-01-22T19:50:16.170Z,8.05
2018-01-22T19:52:43.545Z,8.13
2018-01-22T19:55:10.911Z,7.83
2018-01-22T19:57:38.332Z,7.40
2018-01-22T20:00:05.797Z,7.20
2018-01-22T20:02:33.190Z,8.23
2018-01-22T20:05:00.571Z,8.73
2018-01-22T20:07:27.933Z,9.00
2018-01-22T20:09:55.315Z,8.20
2018-01-22T20:12:22.722Z,7.60
2018-01-22T20:14:50.107Z,7.75
2018-01-22T20:17:17.537Z,8.15
2018-01-22T20:19:45.003Z,8.40
2018-01-22T20:22:12.382Z,7.05
2018-01-22T20:24:39.811Z,7.97
2018-01-22T20:27:07.198Z,8.40
2018-01-22T20:29:34.614Z,7.60
2018-01-22T20:32:01.972Z,8.20
2018-01-22T20:34:29.379Z,8.55
2018-01-22T20:36:56.768Z,7.27
2018-01-22T20:39:24.106Z,7.37
2018-01-22T20:41:51.533Z,8.50
2018-01-22T20:44:18.969Z,7.57
2018-01-22T20:46:46.316Z,7.90
2018-01-22T20:49:13.844Z,7.05
2018-01-22T20:51:41.422Z,8.10
2018-01-22T20:54:08.805Z,8.15
2018-01-22T20:56:36.310Z,7.70
2018-01-22T20:59:03.729Z,8.33
2018-01-22T21:01:31.094Z,7.75
2018-01-22T21:03:58.543Z,8.00
2018-01-22T21:06:25.942Z,8.10
2018-01-22T21:08:53.339Z,7.37
2018-01-22T21:11:21.781Z,8.53
2018-01-22T21:13:50.917Z,7.30
2018-01-22T21:16:18.333Z,8.27
2018-01-22T21:18:45.802Z,7.90
2018-01-22T21:21:13.155Z,7.73
2018-01-22T21:23:40.506Z,7.80
2018-01-22T21:26:07.895Z,6.83
2018-01-22T21:28:35.230Z,7.27
2018-01-22T21:31:02.620Z,6.20
2018-01-22T21:33:30.010Z,6.80
2018-01-22T21:35:57.410Z,8.10
2018-01-22T21:38:24.860Z,7.75
2018-01-22T21:40:52.216Z,7.03
2018-01-22T21:43:19.681Z,6.85
2018-01-22T21:45:47.029Z,7.13
2018-01-22T21:48:14.448Z,7.13
2018-01-22T21:50:41.788Z,6.90
2018-01-22T21:53:09.201Z,8.10
2018-01-22T21:55:36.582Z,7.33
2018-01-22T21:58:03.933Z,6.70
2018-01-22T22:00:31.363Z,8.77
2018-01-22T22:02:58.787Z,6.85
2018-01-22T22:05:26.237Z,6.97
2018-01-22T22:07:53.590Z,7.45
2018-01-22T22:10:20.955Z,7.40
2018-01-22T22:12:48.321Z,7.40
2018-01-22T22:15:15.699Z,7.80
2018-01-22T22:17:43.036Z,6.75
2018-01-22T22:20:10.386Z,7.37
2018-01-22T22:22:37.778Z,6.50
2018-01-22T22:25:05.114Z,6.83
2018-01-22T22:27:32.526Z,7.75
2018-01-22T22:29:59.896Z,8.00
2018-01-22T22:32:27.270Z,6.95
2018-01-22T22:34:54.658Z,7.40
2018-01-22T22:37:22.034Z,7.10
2018-01-22T22:39:49.373Z,7.40
2018-01-22T22:42:16.746Z,7.10
2018-01-22T22:47:17.410Z,5.47
2018-01-22T22:49:44.795Z,7.20
2018-01-22T22:52:12.138Z,6.45
2018-01-22T22:54:39.510Z,6.87
2018-01-22T22:57:06.860Z,6.87
2018-01-22T22:59:34.238Z,6.10
2018-01-22T23:02:01.621Z,6.67
2018-01-22T23:04:28.951Z,7.00
2018-01-22T23:06:56.311Z,7.37
2018-01-22T23:09:23.721Z,6.85
2018-01-22T23:11:51.074Z,6.23
2018-01-22T23:14:18.403Z,6.33
2018-01-22T23:16:45.790Z,6.90
2018-01-22T23:19:13.145Z,6.20
2018-01-22T23:21:40.490Z,6.47
2018-01-22T23:24:07.896Z,6.50
2018-01-22T23:26:35.227Z,7.23
2018-01-22T23:29:02.620Z,6.70
2018-01-22T23:31:30.032Z,6.25
2018-01-22T23:33:57.412Z,6.17
2018-01-22T23:36:24.748Z,7.35
2018-01-22T23:38:52.113Z,7.10
2018-01-22T23:41:19.513Z,6.80
2018-01-22T23:43:46.898Z,5.60
2018-01-22T23:46:14.225Z,6.23
2018-01-22T23:48:41.623Z,6.30
2018-01-22T23:51:09.001Z,5.93
2018-01-22T23:53:36.377Z,6.63
2018-01-22T23:56:03.723Z,7.15
2018-01-22T23:58:31.070Z,6.10
